createdAt,value
2022-09-04T00:00:10.436Z,40.08
2022-09-04T00:00:41.951Z,40.13
2022-09-04T00:01:13.429Z,40.15
2022-09-04T00:01:45.393Z,40.04
2022-09-04T00:02:17.304Z,40.06
2022-09-04T00:02:48.738Z,40.07
2022-09-04T00:03:20.558Z,40.03
2022-09-04T00:03:52.122Z,40.03
2022-09-04T00:04:23.816Z,39.95
2022-09-04T00:04:55.684Z,39.99
2022-09-04T00:05:27.510Z,40.04
2022-09-04T00:05:58.877Z,39.69
2022-09-04T00:06:30.764Z,39.57
2022-09-04T00:07:03.252Z,39.45
2022-09-04T00:07:35.335Z,39.54
2022-09-04T00:08:07.553Z,39.72
2022-09-04T00:08:38.988Z,39.69
2022-09-04T00:09:10.445Z,39.53
2022-09-04T00:09:42.149Z,39.36
2022-09-04T00:10:13.934Z,39.36
2022-09-04T00:10:45.749Z,39.27
2022-09-04T00:11:17.700Z,39.22
2022-09-04T00:11:49.361Z,39.43
2022-09-04T00:12:23.766Z,39.35
2022-09-04T00:12:58.243Z,39.32
2022-09-04T00:13:29.964Z,39.56
2022-09-04T00:14:01.707Z,39.17
2022-09-04T00:14:33.650Z,39.26
2022-09-04T00:15:05.044Z,39.41
2022-09-04T00:15:36.434Z,39.35
2022-09-04T00:16:07.885Z,39.16
2022-09-04T00:16:40.098Z,39.23
2022-09-04T00:17:12.067Z,39.52
2022-09-04T00:17:43.759Z,39.23
2022-09-04T00:18:16.244Z,39.47
2022-09-04T00:18:47.807Z,39.45
2022-09-04T00:19:19.442Z,39.60
2022-09-04T00:19:50.917Z,39.60
2022-09-04T00:20:22.664Z,39.30
2022-09-04T00:20:54.418Z,39.61
2022-09-04T00:21:25.834Z,39.31
2022-09-04T00:21:57.669Z,39.51
2022-09-04T00:22:29.619Z,39.60
2022-09-04T00:23:01.602Z,39.37
2022-09-04T00:23:33.266Z,39.64
2022-09-04T00:24:04.775Z,39.38
2022-09-04T00:24:37.293Z,39.71
2022-09-04T00:25:08.772Z,39.44
2022-09-04T00:25:40.986Z,39.35
2022-09-04T00:26:12.661Z,39.55
2022-09-04T00:26:44.145Z,39.35
2022-09-04T00:27:15.770Z,39.36
2022-09-04T00:27:50.031Z,39.58
2022-09-04T00:28:22.391Z,39.59
2022-09-04T00:28:54.131Z,39.38
2022-09-04T00:29:26.365Z,39.68
2022-09-04T00:29:57.973Z,39.45
2022-09-04T00:30:29.693Z,39.39
2022-09-04T00:31:01.337Z,39.43
2022-09-04T00:31:33.048Z,39.46
2022-09-04T00:32:04.705Z,39.54
2022-09-04T00:32:36.280Z,39.40
2022-09-04T00:33:08.058Z,39.68
2022-09-04T00:33:40.438Z,39.19
2022-09-04T00:34:11.922Z,39.53
2022-09-04T00:34:43.706Z,39.54
2022-09-04T00:35:15.561Z,39.52
2022-09-04T00:35:46.978Z,39.28
2022-09-04T00:36:19.312Z,39.40
2022-09-04T00:36:50.807Z,39.31
2022-09-04T00:37:22.933Z,39.35
2022-09-04T00:37:54.559Z,39.55
2022-09-04T00:38:26.195Z,39.49
2022-09-04T00:38:58.036Z,39.51
2022-09-04T00:39:29.647Z,39.46
2022-09-04T00:40:01.337Z,39.29
2022-09-04T00:40:33.029Z,39.55
2022-09-04T00:41:05.293Z,39.45
2022-09-04T00:41:36.742Z,39.61
2022-09-04T00:42:08.345Z,39.48
2022-09-04T00:42:39.989Z,39.53
2022-09-04T00:43:11.933Z,39.53
2022-09-04T00:43:44.097Z,39.37
2022-09-04T00:44:16.205Z,39.55
2022-09-04T00:44:47.855Z,39.38
2022-09-04T00:45:19.798Z,39.34
2022-09-04T00:45:52.004Z,39.46
2022-09-04T00:46:24.205Z,39.37
2022-09-04T00:46:56.057Z,39.29
2022-09-04T00:47:27.916Z,39.62
2022-09-04T00:47:59.843Z,39.56
2022-09-04T00:48:31.440Z,39.61
2022-09-04T00:49:02.839Z,39.53
2022-09-04T00:49:34.864Z,39.63
2022-09-04T00:50:06.479Z,39.59
2022-09-04T00:50:37.893Z,39.51
2022-09-04T00:51:09.388Z,39.68
2022-09-04T00:51:41.412Z,39.65
2022-09-04T00:52:13.591Z,39.64
2022-09-04T00:52:46.012Z,39.55
2022-09-04T00:53:17.999Z,39.46
2022-09-04T00:53:52.214Z,39.39
2022-09-04T00:54:23.723Z,39.63
2022-09-04T00:54:55.419Z,39.56
2022-09-04T00:55:27.069Z,39.62
2022-09-04T00:55:58.740Z,39.38
2022-09-04T00:56:30.495Z,39.45
2022-09-04T00:57:01.920Z,39.38
2022-09-04T00:57:34.201Z,39.46
2022-09-04T00:58:05.721Z,39.46
2022-09-04T00:58:37.710Z,39.38
2022-09-04T00:59:09.619Z,39.40
2022-09-04T00:59:41.202Z,39.56
2022-09-04T01:00:13.089Z,39.58
2022-09-04T01:00:45.526Z,39.72
2022-09-04T01:01:17.124Z,39.66
2022-09-04T01:01:48.723Z,39.55
2022-09-04T01:02:20.771Z,39.52
2022-09-04T01:02:52.682Z,39.73
2022-09-04T01:03:24.100Z,39.64
2022-09-04T01:03:58.904Z,39.48
2022-09-04T01:04:30.432Z,39.68
2022-09-04T01:05:02.192Z,39.45
2022-09-04T01:05:34.303Z,39.49
2022-09-04T01:06:05.999Z,39.48
2022-09-04T01:06:38.440Z,39.65
2022-09-04T01:07:09.932Z,39.65
2022-09-04T01:07:41.611Z,39.68
2022-09-04T01:08:16.457Z,39.43
2022-09-04T01:08:48.491Z,39.40
2022-09-04T01:09:19.908Z,39.62
2022-09-04T01:09:51.665Z,39.42
2022-09-04T01:10:23.535Z,39.38
2022-09-04T01:10:55.073Z,39.62
2022-09-04T01:11:26.587Z,39.61
2022-09-04T01:11:58.173Z,39.61
2022-09-04T01:12:29.727Z,39.59
2022-09-04T01:13:01.339Z,39.57
2022-09-04T01:13:33.358Z,39.67
2022-09-04T01:14:06.977Z,39.52
2022-09-04T01:14:38.478Z,39.46
2022-09-04T01:15:10.134Z,39.63
2022-09-04T01:15:41.611Z,39.54
2022-09-04T01:16:13.474Z,39.61
2022-09-04T01:16:44.978Z,39.61
2022-09-04T01:17:16.890Z,39.64
2022-09-04T01:17:48.581Z,39.67
2022-09-04T01:18:20.156Z,39.64
2022-09-04T01:18:52.241Z,39.46
2022-09-04T01:19:24.019Z,39.53
2022-09-04T01:19:55.657Z,39.61
2022-09-04T01:20:28.219Z,39.68
2022-09-04T01:21:00.243Z,39.46
2022-09-04T01:21:32.022Z,39.47
2022-09-04T01:22:03.763Z,39.46
2022-09-04T01:22:35.630Z,39.48
2022-09-04T01:23:07.464Z,39.50
2022-09-04T01:23:39.250Z,39.60
2022-09-04T01:24:11.035Z,39.45
2022-09-04T01:24:42.760Z,39.45
2022-09-04T01:25:14.665Z,39.62
2022-09-04T01:25:46.567Z,39.56
2022-09-04T01:26:18.101Z,39.42
2022-09-04T01:26:49.523Z,39.48
2022-09-04T01:27:21.034Z,39.58
2022-09-04T01:27:52.598Z,39.68
2022-09-04T01:28:24.455Z,39.57
2022-09-04T01:28:56.286Z,39.65
2022-09-04T01:29:27.826Z,39.44
2022-09-04T01:29:59.785Z,39.41
2022-09-04T01:30:31.421Z,39.57
2022-09-04T01:31:02.896Z,39.37
2022-09-04T01:31:34.795Z,39.60
2022-09-04T01:32:06.692Z,39.58
2022-09-04T01:32:38.458Z,39.47
2022-09-04T01:33:10.462Z,39.59
2022-09-04T01:33:42.222Z,39.54
2022-09-04T01:34:13.992Z,39.60
2022-09-04T01:34:45.538Z,39.48
2022-09-04T01:35:16.941Z,39.54
2022-09-04T01:35:48.741Z,39.52
2022-09-04T01:36:21.447Z,39.57
2022-09-04T01:36:52.955Z,39.35
2022-09-04T01:37:24.790Z,39.73
2022-09-04T01:37:56.469Z,39.43
2022-09-04T01:38:27.858Z,39.66
2022-09-04T01:38:59.535Z,39.65
2022-09-04T01:39:31.097Z,39.67
2022-09-04T01:40:02.653Z,39.62
2022-09-04T01:40:35.843Z,39.43
2022-09-04T01:41:07.715Z,39.66
2022-09-04T01:41:40.344Z,39.60
2022-09-04T01:42:11.830Z,39.38
2022-09-04T01:42:43.797Z,39.42
2022-09-04T01:43:16.281Z,39.33
2022-09-04T01:43:47.711Z,39.53
2022-09-04T01:44:19.455Z,39.53
2022-09-04T01:44:50.911Z,39.56
2022-09-04T01:45:22.917Z,39.75
2022-09-04T01:45:54.523Z,39.63
2022-09-04T01:46:26.041Z,39.71
2022-09-04T01:46:57.827Z,39.53
2022-09-04T01:47:30.004Z,39.55
2022-09-04T01:48:01.992Z,39.39
2022-09-04T01:48:33.946Z,39.50
2022-09-04T01:49:05.895Z,39.68
2022-09-04T01:49:37.802Z,39.38
2022-09-04T01:50:09.661Z,39.60
2022-09-04T01:50:41.352Z,39.71
2022-09-04T01:51:12.839Z,39.51
2022-09-04T01:51:44.562Z,39.78
2022-09-04T01:52:16.081Z,39.55
2022-09-04T01:52:47.698Z,39.53
2022-09-04T01:53:19.762Z,39.46
2022-09-04T01:53:51.673Z,39.36
2022-09-04T01:54:23.772Z,39.63
2022-09-04T01:54:55.424Z,39.47
2022-09-04T01:55:27.243Z,39.47
2022-09-04T01:55:58.821Z,39.52
2022-09-04T01:56:30.630Z,39.43
2022-09-04T01:57:02.240Z,39.39
2022-09-04T01:57:33.834Z,39.63
2022-09-04T01:58:08.266Z,39.28
2022-09-04T01:58:39.893Z,39.48
2022-09-04T01:59:11.425Z,39.28
2022-09-04T01:59:44.437Z,39.46
2022-09-04T02:00:16.289Z,39.58
2022-09-04T02:00:47.836Z,39.37
2022-09-04T02:01:21.488Z,39.51
2022-09-04T02:01:53.152Z,39.63
2022-09-04T02:02:24.870Z,39.71
2022-09-04T02:02:56.528Z,39.38
2022-09-04T02:03:28.008Z,39.63
2022-09-04T02:03:59.459Z,39.54
2022-09-04T02:04:30.904Z,39.65
2022-09-04T02:05:07.742Z,39.56
2022-09-04T02:05:40.280Z,39.65
2022-09-04T02:06:11.910Z,39.62
2022-09-04T02:06:43.865Z,39.37
2022-09-04T02:07:16.041Z,39.46
2022-09-04T02:07:47.759Z,39.45
2022-09-04T02:08:19.775Z,39.54
2022-09-04T02:08:51.701Z,39.48
2022-09-04T02:09:23.517Z,39.51
2022-09-04T02:09:54.950Z,39.53
2022-09-04T02:10:27.097Z,39.58
2022-09-04T02:10:58.890Z,39.55
2022-09-04T02:11:30.795Z,39.39
2022-09-04T02:12:02.827Z,39.58
2022-09-04T02:12:38.656Z,39.43
2022-09-04T02:13:10.393Z,39.48
2022-09-04T02:13:42.043Z,39.51
2022-09-04T02:14:13.624Z,39.48
2022-09-04T02:14:46.676Z,39.72
2022-09-04T02:15:18.354Z,39.53
2022-09-04T02:15:50.298Z,39.54
2022-09-04T02:16:22.108Z,39.73
2022-09-04T02:16:53.797Z,39.39
2022-09-04T02:17:25.708Z,39.33
2022-09-04T02:17:58.281Z,39.56
2022-09-04T02:18:29.774Z,39.55
2022-09-04T02:19:01.555Z,39.51
2022-09-04T02:19:33.124Z,39.56
2022-09-04T02:20:04.848Z,39.49
2022-09-04T02:20:36.565Z,39.55
2022-09-04T02:21:08.100Z,39.50
2022-09-04T02:21:39.923Z,39.52
2022-09-04T02:22:11.838Z,39.64
2022-09-04T02:22:43.657Z,39.66
2022-09-04T02:23:15.243Z,39.49
2022-09-04T02:23:46.779Z,39.68
2022-09-04T02:24:18.396Z,39.49
2022-09-04T02:24:50.502Z,39.60
2022-09-04T02:25:22.106Z,39.48
2022-09-04T02:25:53.756Z,39.65
2022-09-04T02:26:26.151Z,39.37
2022-09-04T02:26:58.008Z,39.61
2022-09-04T02:27:29.914Z,39.68
2022-09-04T02:28:01.954Z,39.60
2022-09-04T02:28:33.816Z,39.43
2022-09-04T02:29:05.815Z,39.44
2022-09-04T02:29:37.653Z,39.34
2022-09-04T02:30:09.629Z,39.51
2022-09-04T02:30:41.513Z,39.52
2022-09-04T02:31:12.975Z,39.64
2022-09-04T02:31:44.485Z,39.59
2022-09-04T02:32:16.375Z,39.42
2022-09-04T02:32:48.390Z,39.65
2022-09-04T02:33:19.801Z,39.61
2022-09-04T02:33:51.528Z,39.45
2022-09-04T02:34:23.265Z,39.70
2022-09-04T02:34:55.182Z,39.56
2022-09-04T02:35:26.679Z,39.41
2022-09-04T02:35:58.261Z,39.53
2022-09-04T02:36:29.763Z,39.43
2022-09-04T02:37:01.250Z,39.50
2022-09-04T02:37:32.703Z,39.44
2022-09-04T02:38:04.638Z,39.70
2022-09-04T02:38:36.466Z,39.67
2022-09-04T02:39:07.982Z,39.51
2022-09-04T02:39:41.235Z,39.37
2022-09-04T02:40:13.398Z,39.62
2022-09-04T02:40:44.780Z,39.52
2022-09-04T02:41:16.587Z,39.53
2022-09-04T02:41:48.038Z,39.54
2022-09-04T02:42:19.722Z,39.38
2022-09-04T02:42:51.113Z,39.60
2022-09-04T02:43:23.290Z,39.44
2022-09-04T02:43:55.535Z,39.56
2022-09-04T02:44:26.952Z,39.63
2022-09-04T02:44:58.708Z,39.58
2022-09-04T02:45:30.716Z,39.38
2022-09-04T02:46:02.698Z,39.59
2022-09-04T02:46:34.486Z,39.49
2022-09-04T02:47:06.489Z,39.64
2022-09-04T02:47:37.930Z,39.43
2022-09-04T02:48:09.710Z,39.53
2022-09-04T02:48:41.455Z,39.40
2022-09-04T02:49:13.033Z,39.60
2022-09-04T02:49:44.731Z,39.64
2022-09-04T02:50:16.424Z,39.38
2022-09-04T02:50:48.139Z,39.60
2022-09-04T02:51:20.189Z,39.48
2022-09-04T02:51:52.435Z,39.47
2022-09-04T02:52:23.896Z,39.67
2022-09-04T02:52:56.116Z,39.56
2022-09-04T02:53:27.725Z,39.52
2022-09-04T02:53:59.411Z,39.44
2022-09-04T02:54:30.801Z,39.57
2022-09-04T02:55:02.470Z,39.47
2022-09-04T02:55:34.185Z,39.38
2022-09-04T02:56:06.094Z,39.44
2022-09-04T02:56:37.640Z,39.34
2022-09-04T02:57:09.591Z,39.42
2022-09-04T02:57:41.441Z,39.34
2022-09-04T02:58:13.283Z,39.32
2022-09-04T02:58:44.729Z,39.39
2022-09-04T02:59:16.234Z,39.51
2022-09-04T02:59:47.731Z,39.50
2022-09-04T03:00:21.424Z,39.42
2022-09-04T03:00:53.437Z,39.63
2022-09-04T03:01:24.879Z,39.34
2022-09-04T03:01:56.911Z,39.31
2022-09-04T03:02:28.778Z,39.53
2022-09-04T03:03:00.356Z,39.38
2022-09-04T03:03:31.864Z,39.38
2022-09-04T03:04:03.820Z,39.52
2022-09-04T03:04:35.769Z,39.36
2022-09-04T03:05:08.440Z,39.57
2022-09-04T03:05:42.556Z,39.33
2022-09-04T03:06:14.038Z,39.50
2022-09-04T03:06:46.395Z,39.33
2022-09-04T03:07:18.306Z,39.43
2022-09-04T03:07:51.055Z,39.36
2022-09-04T03:08:23.542Z,39.34
2022-09-04T03:08:54.995Z,39.44
2022-09-04T03:09:27.378Z,39.62
2022-09-04T03:09:58.756Z,39.52
2022-09-04T03:10:30.402Z,39.53
2022-09-04T03:11:01.926Z,39.55
2022-09-04T03:11:33.559Z,39.57
2022-09-04T03:12:05.045Z,39.56
2022-09-04T03:12:36.854Z,39.43
2022-09-04T03:13:08.743Z,39.28
2022-09-04T03:13:40.362Z,39.35
2022-09-04T03:14:12.334Z,39.48
2022-09-04T03:14:44.227Z,39.54
2022-09-04T03:15:15.989Z,39.41
2022-09-04T03:15:47.649Z,39.50
2022-09-04T03:16:19.397Z,39.56
2022-09-04T03:16:51.296Z,39.39
2022-09-04T03:17:24.362Z,39.41
2022-09-04T03:17:56.378Z,39.50
2022-09-04T03:18:28.588Z,39.56
2022-09-04T03:19:00.291Z,39.46
2022-09-04T03:19:31.686Z,39.26
2022-09-04T03:20:06.741Z,39.52
2022-09-04T03:20:38.778Z,39.54
2022-09-04T03:21:10.396Z,39.27
2022-09-04T03:21:42.262Z,39.48
2022-09-04T03:22:13.837Z,39.40
2022-09-04T03:22:45.466Z,39.40
2022-09-04T03:23:16.964Z,39.23
2022-09-04T03:23:48.406Z,39.47
2022-09-04T03:24:19.992Z,39.25
2022-09-04T03:24:51.437Z,39.26
2022-09-04T03:25:23.512Z,39.40
2022-09-04T03:25:55.115Z,39.33
2022-09-04T03:26:26.798Z,39.27
2022-09-04T03:26:58.727Z,39.37
2022-09-04T03:27:30.348Z,39.40
2022-09-04T03:28:01.898Z,39.46
2022-09-04T03:28:33.867Z,39.33
2022-09-04T03:29:05.848Z,39.45
2022-09-04T03:29:37.632Z,39.38
2022-09-04T03:30:09.312Z,39.30
2022-09-04T03:30:40.882Z,39.51
2022-09-04T03:31:14.960Z,39.32
2022-09-04T03:31:46.857Z,39.54
2022-09-04T03:32:18.411Z,39.54
2022-09-04T03:32:50.451Z,39.15
2022-09-04T03:33:21.896Z,39.37
2022-09-04T03:33:53.765Z,39.51
2022-09-04T03:34:26.283Z,39.27
2022-09-04T03:34:57.801Z,39.23
2022-09-04T03:35:29.713Z,39.24
2022-09-04T03:36:02.174Z,39.41
2022-09-04T03:36:34.518Z,39.40
2022-09-04T03:37:06.290Z,39.26
2022-09-04T03:37:37.763Z,39.36
2022-09-04T03:38:10.317Z,39.38
2022-09-04T03:38:41.837Z,39.32
2022-09-04T03:39:13.719Z,39.31
2022-09-04T03:39:46.022Z,39.46
2022-09-04T03:40:17.678Z,39.40
2022-09-04T03:40:49.773Z,39.36
2022-09-04T03:41:21.560Z,39.33
2022-09-04T03:41:52.966Z,39.28
2022-09-04T03:42:24.612Z,39.42
2022-09-04T03:42:59.060Z,39.37
2022-09-04T03:43:30.768Z,39.34
2022-09-04T03:44:02.631Z,39.36
2022-09-04T03:44:34.516Z,39.18
2022-09-04T03:45:05.972Z,39.42
2022-09-04T03:45:38.168Z,39.31
2022-09-04T03:46:10.090Z,39.26
2022-09-04T03:46:41.809Z,39.33
2022-09-04T03:47:13.314Z,39.34
2022-09-04T03:47:44.908Z,39.43
2022-09-04T03:48:16.656Z,39.11
2022-09-04T03:48:48.100Z,39.12
2022-09-04T03:49:20.351Z,39.33
2022-09-04T03:49:52.223Z,39.37
2022-09-04T03:50:24.159Z,39.36
2022-09-04T03:50:56.358Z,39.35
2022-09-04T03:51:27.808Z,39.42
2022-09-04T03:51:59.637Z,39.28
2022-09-04T03:52:31.645Z,39.28
2022-09-04T03:53:03.072Z,39.16
2022-09-04T03:53:35.082Z,39.38
2022-09-04T03:54:07.072Z,39.37
2022-09-04T03:54:38.984Z,39.41
2022-09-04T03:55:11.057Z,39.21
2022-09-04T03:55:43.491Z,39.19
2022-09-04T03:56:15.374Z,39.22
2022-09-04T03:56:46.883Z,39.23
2022-09-04T03:57:19.282Z,39.21
2022-09-04T03:57:50.769Z,39.23
2022-09-04T03:58:22.413Z,39.18
2022-09-04T03:58:53.909Z,39.23
2022-09-04T03:59:25.750Z,39.27
2022-09-04T03:59:59.628Z,39.34
2022-09-04T04:00:31.346Z,39.47
2022-09-04T04:01:03.042Z,39.28
2022-09-04T04:01:34.654Z,39.23
2022-09-04T04:02:06.452Z,39.39
2022-09-04T04:02:38.225Z,39.29
2022-09-04T04:03:09.777Z,39.22
2022-09-04T04:03:41.310Z,39.32
2022-09-04T04:04:12.726Z,39.20
2022-09-04T04:04:44.493Z,39.32
2022-09-04T04:05:15.898Z,39.30
2022-09-04T04:05:48.589Z,39.40
2022-09-04T04:06:20.006Z,39.14
2022-09-04T04:06:52.199Z,39.27
2022-09-04T04:07:24.329Z,39.32
2022-09-04T04:07:55.814Z,39.42
2022-09-04T04:08:27.281Z,39.32
2022-09-04T04:08:58.985Z,39.42
2022-09-04T04:09:30.907Z,39.34
2022-09-04T04:10:03.016Z,39.27
2022-09-04T04:10:34.809Z,39.42
2022-09-04T04:11:06.519Z,39.24
2022-09-04T04:11:43.328Z,39.31
2022-09-04T04:12:15.078Z,39.15
2022-09-04T04:12:46.888Z,39.35
2022-09-04T04:13:21.506Z,39.10
2022-09-04T04:13:53.108Z,39.18
2022-09-04T04:14:25.152Z,39.15
2022-09-04T04:14:56.721Z,39.37
2022-09-04T04:15:28.638Z,39.29
2022-09-04T04:16:00.249Z,39.00
2022-09-04T04:16:31.764Z,39.17
2022-09-04T04:17:03.741Z,39.30
2022-09-04T04:17:36.196Z,39.36
2022-09-04T04:18:07.879Z,39.16
2022-09-04T04:18:39.890Z,39.16
2022-09-04T04:19:11.643Z,39.14
2022-09-04T04:19:43.313Z,39.26
2022-09-04T04:20:14.725Z,39.16
2022-09-04T04:20:46.462Z,39.32
2022-09-04T04:21:18.077Z,39.19
2022-09-04T04:21:49.656Z,39.10
2022-09-04T04:22:21.442Z,39.43
2022-09-04T04:22:53.067Z,39.17
2022-09-04T04:23:25.058Z,39.11
2022-09-04T04:23:57.005Z,39.26
2022-09-04T04:24:28.857Z,39.23
2022-09-04T04:25:01.533Z,39.09
2022-09-04T04:25:33.036Z,39.45
2022-09-04T04:26:04.922Z,39.25
2022-09-04T04:26:36.810Z,39.21
2022-09-04T04:27:08.394Z,39.51
2022-09-04T04:27:40.518Z,39.18
2022-09-04T04:28:12.310Z,39.28
2022-09-04T04:28:45.168Z,39.39
2022-09-04T04:29:17.055Z,39.29
2022-09-04T04:29:48.760Z,39.15
2022-09-04T04:30:20.762Z,39.35
2022-09-04T04:30:52.562Z,39.30
2022-09-04T04:31:24.069Z,39.33
2022-09-04T04:31:55.920Z,39.25
2022-09-04T04:32:27.461Z,39.18
2022-09-04T04:32:58.936Z,39.44
2022-09-04T04:33:30.651Z,39.39
2022-09-04T04:34:02.367Z,39.47
2022-09-04T04:34:33.999Z,39.37
2022-09-04T04:35:05.734Z,39.38
2022-09-04T04:35:37.619Z,39.10
2022-09-04T04:36:09.421Z,39.45
2022-09-04T04:36:41.091Z,39.38
2022-09-04T04:37:12.999Z,39.49
2022-09-04T04:37:44.882Z,39.21
2022-09-04T04:38:16.707Z,39.42
2022-09-04T04:38:48.404Z,39.28
2022-09-04T04:39:19.956Z,39.34
2022-09-04T04:39:52.197Z,39.23
2022-09-04T04:40:23.830Z,39.22
2022-09-04T04:40:55.789Z,39.21
2022-09-04T04:41:28.434Z,39.40
2022-09-04T04:42:00.084Z,39.37
2022-09-04T04:42:31.694Z,39.39
2022-09-04T04:43:03.517Z,39.14
2022-09-04T04:43:34.977Z,39.35
2022-09-04T04:44:06.551Z,39.37
2022-09-04T04:44:38.946Z,39.29
2022-09-04T04:45:10.620Z,39.29
2022-09-04T04:45:42.091Z,39.20
2022-09-04T04:46:14.036Z,39.37
2022-09-04T04:46:45.868Z,39.30
2022-09-04T04:47:17.809Z,39.50
2022-09-04T04:47:49.716Z,39.20
2022-09-04T04:48:21.334Z,39.26
2022-09-04T04:48:52.930Z,39.28
2022-09-04T04:49:24.799Z,39.23
2022-09-04T04:49:57.018Z,39.26
2022-09-04T04:50:28.643Z,39.15
2022-09-04T04:51:00.242Z,39.25
2022-09-04T04:51:32.077Z,39.39
2022-09-04T04:52:03.685Z,39.21
2022-09-04T04:52:37.768Z,39.29
2022-09-04T04:53:09.596Z,39.26
2022-09-04T04:53:41.103Z,39.19
2022-09-04T04:54:13.144Z,39.36
2022-09-04T04:54:45.112Z,39.16
2022-09-04T04:55:17.320Z,39.38
2022-09-04T04:55:49.433Z,39.41
2022-09-04T04:56:21.477Z,39.42
2022-09-04T04:56:53.347Z,39.34
2022-09-04T04:57:24.787Z,39.48
2022-09-04T04:57:56.568Z,39.44
2022-09-04T04:58:28.394Z,39.38
2022-09-04T04:59:00.002Z,39.56
2022-09-04T04:59:31.951Z,39.22
2022-09-04T05:00:03.612Z,39.51
2022-09-04T05:00:35.076Z,39.41
2022-09-04T05:01:06.731Z,39.31
2022-09-04T05:01:38.198Z,39.44
2022-09-04T05:02:10.056Z,39.23
2022-09-04T05:02:41.833Z,39.42
2022-09-04T05:03:13.626Z,39.26
2022-09-04T05:03:45.363Z,39.28
2022-09-04T05:04:17.133Z,39.56
2022-09-04T05:04:49.078Z,39.35
2022-09-04T05:05:20.833Z,39.51
2022-09-04T05:05:52.633Z,39.37
2022-09-04T05:06:24.179Z,39.48
2022-09-04T05:06:56.037Z,39.49
2022-09-04T05:07:27.689Z,39.49
2022-09-04T05:07:59.127Z,39.33
2022-09-04T05:08:30.846Z,39.30
2022-09-04T05:09:02.943Z,39.38
2022-09-04T05:09:35.195Z,39.44
2022-09-04T05:10:06.834Z,39.52
2022-09-04T05:10:39.373Z,39.47
2022-09-04T05:11:10.985Z,39.43
2022-09-04T05:11:42.879Z,39.56
2022-09-04T05:12:15.094Z,39.38
2022-09-04T05:12:46.577Z,39.57
2022-09-04T05:13:18.397Z,39.42
2022-09-04T05:13:51.555Z,39.47
2022-09-04T05:14:24.358Z,39.48
2022-09-04T05:14:56.613Z,39.44
2022-09-04T05:15:28.029Z,39.48
2022-09-04T05:16:08.830Z,39.57
2022-09-04T05:16:41.106Z,39.53
2022-09-04T05:17:12.891Z,39.58
2022-09-04T05:17:44.703Z,39.55
2022-09-04T05:18:16.974Z,39.57
2022-09-04T05:18:48.672Z,39.45
2022-09-04T05:19:20.321Z,39.44
2022-09-04T05:19:52.407Z,39.58
2022-09-04T05:20:24.284Z,39.47
2022-09-04T05:20:56.104Z,39.59
2022-09-04T05:21:27.681Z,39.49
2022-09-04T05:21:59.389Z,39.50
2022-09-04T05:22:34.162Z,39.68
2022-09-04T05:23:06.373Z,39.34
2022-09-04T05:23:37.797Z,39.33
2022-09-04T05:24:09.380Z,39.68
2022-09-04T05:24:41.013Z,39.37
2022-09-04T05:25:12.751Z,39.74
2022-09-04T05:25:44.352Z,39.52
2022-09-04T05:26:15.798Z,39.60
2022-09-04T05:26:49.703Z,39.55
2022-09-04T05:27:21.359Z,39.59
2022-09-04T05:27:52.733Z,39.41
2022-09-04T05:28:24.634Z,39.57
2022-09-04T05:28:56.499Z,39.41
2022-09-04T05:29:32.366Z,39.37
2022-09-04T05:30:03.991Z,39.45
2022-09-04T05:30:35.783Z,39.36
2022-09-04T05:31:07.587Z,39.65
2022-09-04T05:31:40.055Z,39.47
2022-09-04T05:32:13.445Z,39.33
2022-09-04T05:32:49.058Z,39.55
2022-09-04T05:33:23.339Z,39.51
2022-09-04T05:33:54.804Z,39.58
2022-09-04T05:34:26.608Z,39.41
2022-09-04T05:34:58.096Z,39.56
2022-09-04T05:35:31.882Z,39.56
2022-09-04T05:36:07.384Z,39.56
2022-09-04T05:36:38.854Z,39.48
2022-09-04T05:37:10.826Z,39.47
2022-09-04T05:37:42.713Z,39.64
2022-09-04T05:38:14.355Z,39.46
2022-09-04T05:38:45.829Z,39.74
2022-09-04T05:39:17.367Z,39.48
2022-09-04T05:39:49.140Z,39.67
2022-09-04T05:40:21.773Z,39.58
2022-09-04T05:40:53.748Z,39.49
2022-09-04T05:41:25.524Z,39.68
2022-09-04T05:41:56.904Z,39.53
2022-09-04T05:42:28.747Z,39.61
2022-09-04T05:43:00.425Z,39.66
2022-09-04T05:43:31.954Z,39.66
2022-09-04T05:44:04.218Z,39.49
2022-09-04T05:44:35.738Z,39.46
2022-09-04T05:45:07.694Z,39.76
2022-09-04T05:45:39.110Z,39.66
2022-09-04T05:46:11.451Z,39.52
2022-09-04T05:46:43.062Z,39.66
2022-09-04T05:47:14.712Z,39.42
2022-09-04T05:47:46.468Z,39.39
2022-09-04T05:48:18.075Z,39.49
2022-09-04T05:48:50.332Z,39.51
2022-09-04T05:49:21.772Z,39.62
2022-09-04T05:49:53.567Z,39.65
2022-09-04T05:50:25.503Z,39.52
2022-09-04T05:50:56.918Z,39.62
2022-09-04T05:51:28.543Z,39.55
2022-09-04T05:52:00.526Z,39.54
2022-09-04T05:52:32.140Z,39.52
2022-09-04T05:53:04.503Z,39.69
2022-09-04T05:53:35.926Z,39.60
2022-09-04T05:54:07.541Z,39.78
2022-09-04T05:54:39.038Z,39.60
2022-09-04T05:55:11.262Z,39.65
2022-09-04T05:55:43.178Z,39.78
2022-09-04T05:56:14.779Z,39.79
2022-09-04T05:56:46.550Z,39.76
2022-09-04T05:57:18.035Z,39.78
2022-09-04T05:57:49.884Z,39.65
2022-09-04T05:58:21.822Z,39.73
2022-09-04T05:58:53.444Z,39.73
2022-09-04T05:59:25.116Z,39.62
2022-09-04T05:59:56.807Z,39.92
2022-09-04T06:00:28.545Z,39.70
2022-09-04T06:01:00.018Z,39.83
2022-09-04T06:01:31.466Z,39.60
2022-09-04T06:02:03.035Z,39.78
2022-09-04T06:02:34.812Z,39.88
2022-09-04T06:03:06.417Z,39.68
2022-09-04T06:03:38.548Z,39.71
2022-09-04T06:04:10.059Z,39.81
2022-09-04T06:04:41.591Z,39.74
2022-09-04T06:05:13.523Z,39.67
2022-09-04T06:05:45.225Z,39.81
2022-09-04T06:06:16.888Z,39.67
2022-09-04T06:06:48.453Z,39.80
2022-09-04T06:07:20.348Z,39.70
2022-09-04T06:07:51.771Z,39.88
2022-09-04T06:08:28.336Z,39.48
2022-09-04T06:09:00.393Z,39.76
2022-09-04T06:09:32.075Z,39.86
2022-09-04T06:10:04.043Z,39.59
2022-09-04T06:10:35.862Z,39.55
2022-09-04T06:11:07.430Z,39.71
2022-09-04T06:11:38.938Z,39.67
2022-09-04T06:12:11.124Z,39.75
2022-09-04T06:12:43.148Z,39.82
2022-09-04T06:13:14.878Z,39.88
2022-09-04T06:13:46.699Z,39.86
2022-09-04T06:14:18.529Z,39.82
2022-09-04T06:14:49.977Z,39.77
2022-09-04T06:15:21.880Z,39.79
2022-09-04T06:15:53.720Z,40.01
2022-09-04T06:16:25.798Z,39.83
2022-09-04T06:16:57.561Z,39.73
2022-09-04T06:17:29.410Z,39.93
2022-09-04T06:18:01.507Z,39.76
2022-09-04T06:18:33.058Z,39.76
2022-09-04T06:19:04.727Z,39.79
2022-09-04T06:19:36.460Z,39.91
2022-09-04T06:20:08.044Z,39.86
2022-09-04T06:20:42.218Z,40.01
2022-09-04T06:21:14.284Z,39.90
2022-09-04T06:21:45.896Z,39.95
2022-09-04T06:22:17.673Z,39.93
2022-09-04T06:22:51.769Z,40.08
2022-09-04T06:23:25.915Z,39.96
2022-09-04T06:23:57.488Z,40.01
2022-09-04T06:24:29.055Z,39.85
2022-09-04T06:25:01.186Z,39.90
2022-09-04T06:25:32.777Z,40.14
2022-09-04T06:26:04.678Z,39.95
2022-09-04T06:26:36.053Z,39.85
2022-09-04T06:27:07.764Z,39.96
2022-09-04T06:27:39.900Z,39.94
2022-09-04T06:28:12.527Z,40.08
2022-09-04T06:28:44.233Z,40.07
2022-09-04T06:29:18.158Z,39.99
2022-09-04T06:29:50.431Z,39.99
2022-09-04T06:30:22.393Z,39.99
2022-09-04T06:30:54.552Z,40.00
2022-09-04T06:31:26.021Z,40.16
2022-09-04T06:31:57.921Z,40.16
2022-09-04T06:32:29.736Z,40.12
2022-09-04T06:33:01.245Z,40.17
2022-09-04T06:33:32.943Z,40.12
2022-09-04T06:34:04.781Z,40.13
2022-09-04T06:34:36.574Z,40.20
2022-09-04T06:35:08.410Z,40.10
2022-09-04T06:35:40.055Z,40.34
2022-09-04T06:36:13.920Z,40.12
2022-09-04T06:36:47.055Z,40.08
2022-09-04T06:37:18.747Z,40.13
2022-09-04T06:37:50.384Z,40.11
2022-09-04T06:38:22.192Z,40.26
2022-09-04T06:38:54.146Z,40.17
2022-09-04T06:39:26.547Z,40.31
2022-09-04T06:39:58.264Z,40.40
2022-09-04T06:40:29.947Z,40.36
2022-09-04T06:41:02.059Z,40.58
2022-09-04T06:41:33.908Z,40.60
2022-09-04T06:42:06.428Z,40.82
2022-09-04T06:42:38.292Z,40.89
2022-09-04T06:43:09.696Z,40.76
2022-09-04T06:43:41.144Z,40.79
2022-09-04T06:44:13.039Z,40.81
2022-09-04T06:44:44.635Z,40.83
2022-09-04T06:45:16.231Z,40.91
2022-09-04T06:45:47.890Z,40.88
2022-09-04T06:46:19.506Z,40.81
2022-09-04T06:46:51.258Z,40.88
2022-09-04T06:47:23.455Z,41.04
2022-09-04T06:47:55.412Z,40.86
2022-09-04T06:48:26.819Z,41.08
2022-09-04T06:48:58.658Z,41.03
2022-09-04T06:49:30.082Z,41.17
2022-09-04T06:50:02.264Z,41.29
2022-09-04T06:50:34.028Z,41.45
2022-09-04T06:51:05.665Z,41.28